Catharina 1 — 9H4209 — position and weather

sailwx.info

Track history (hours):
 
Tides and Currents Weather Stations Pressure Air Temp Water Temp Dewpoint Dewpoint Depression Visibility Wind Speed Wind Dir Waves Ship Positions

Catharina 1

Last reported at 2018-Jun-07 01:39 UTC. Time now 2018-Jun-20 09:22 UTC.
Position N 43°47' E 014°25'.
Warning: this ship's position is 13 days out of date.

Length 85 m; draft 4.2 m.

Type: Cargo ship. MMSI: 256686000.

Date/timePositionNaut miles runAvg speedWind from/ knotsBaromVisibWave heightAir tempDewpointWater temp
2018-Jun-07 01:39N 43°47' E 014°25'2 8.9
2018-Jun-07 01:28N 43°47' E 014°23'4 8.7
2018-Jun-07 01:00N 43°48' E 014°18'4 8.6
2018-Jun-07 00:30N 43°49' E 014°12'6 8.7
2018-Jun-06 23:48N 43°51' E 014°04'3 8.8
2018-Jun-06 23:30N 43°52' E 014°01'4 8.9
2018-Jun-06 23:00N 43°53' E 013°55'8 8.6
2018-Jun-06 22:07N 43°56' E 013°45'1 8.6
2018-Jun-06 21:59N 43°57' E 013°44'4 8.7
2018-Jun-06 21:30N 43°59' E 013°39'59 8.2
2018-Jun-06 14:19N 44°29' E 012°28'2 1.7
2018-Jun-06 13:04N 44°30' E 012°25'0 0.1
2018-Jun-06 12:58N 44°30' E 012°25'0 0.0
2018-Jun-06 12:25N 44°30' E 012°25'0 0.0
2018-Jun-06 11:52N 44°30' E 012°25'0 0.0
2018-Jun-06 11:07N 44°30' E 012°25'0 0.0
2018-Jun-06 10:55N 44°30' E 012°25'0 0.0
2018-Jun-06 10:27N 44°30' E 012°25'0 0.0
2018-Jun-05 19:48N 44°30' E 012°26'0 0.0
2018-Jun-05 19:30N 44°30' E 012°25'0 0.0
2018-Jun-05 19:00N 44°30' E 012°25'0 0.0
2018-Jun-05 18:15N 44°30' E 012°25'0 0.0
2018-Jun-05 16:36N 44°30' E 012°25'0 0.0
2018-Jun-05 16:27N 44°30' E 012°25'0 0.0
2018-Jun-05 15:42N 44°30' E 012°25'0 0.0
2018-Jun-05 15:09N 44°30' E 012°25'0 0.0
2018-Jun-05 14:54N 44°30' E 012°25'0 0.0
2018-Jun-05 14:27N 44°30' E 012°25'0 0.0
2018-Jun-05 13:57N 44°30' E 012°25'0 0.0
2018-Jun-05 13:25N 44°30' E 012°25'0 0.0
2018-Jun-04 19:10N 44°30' E 012°26'0 0.1
2018-Jun-04 18:52N 44°30' E 012°26'0 0.0
2018-Jun-04 18:22N 44°30' E 012°26'0 0.0
2018-Jun-04 17:58N 44°30' E 012°25'0 0.0
2018-Jun-04 17:28N 44°30' E 012°26'0 0.0
2018-Jun-04 12:10N 44°30' E 012°25'0 0.0
2018-Jun-04 04:30N 44°30' E 012°26'0 0.0
2018-Jun-04 03:48N 44°30' E 012°26'0 0.0
2018-Jun-04 03:30N 44°30' E 012°26'0 0.0
2018-Jun-04 00:48N 44°30' E 012°25'0 0.0
2018-Jun-03 22:54N 44°30' E 012°26'0 0.0
2018-Jun-03 21:00N 44°30' E 012°26'0 0.0
2018-Jun-03 20:12N 44°30' E 012°26'0 0.0
2018-Jun-03 19:48N 44°30' E 012°25'0 0.0
2018-Jun-03 12:51N 44°30' E 012°25'0 0.0
2018-Jun-03 10:39N 44°30' E 012°26'0 0.0
2018-Jun-03 10:21N 44°30' E 012°26'0 0.0
2018-Jun-03 09:57N 44°30' E 012°26'0 0.0
2018-Jun-03 09:30N 44°30' E 012°26'0 0.0
2018-Jun-03 09:00N 44°30' E 012°26'0 0.0
2018-Jun-03 08:24N 44°30' E 012°26'0 0.0
2018-Jun-03 03:48N 44°30' E 012°26'0 0.0
2018-Jun-03 03:30N 44°30' E 012°26'0 0.0
2018-Jun-03 03:00N 44°30' E 012°26'0 0.0
2018-Jun-02 22:33N 44°30' E 012°26'0 0.1
2018-Jun-02 22:30N 44°30' E 012°26'0 0.0
2018-Jun-02 22:00N 44°30' E 012°26'0 0.0
2018-Jun-02 21:26N 44°30' E 012°26'0 0.0
2018-Jun-02 20:02N 44°30' E 012°26'0 0.0
2018-Jun-02 19:56N 44°30' E 012°26'0 0.0
2018-Jun-02 17:53N 44°30' E 012°25'0 0.0
2018-Jun-02 17:23N 44°30' E 012°25'0 0.0
2018-Jun-02 16:08N 44°30' E 012°25'0 0.0
2018-Jun-02 15:53N 44°30' E 012°25'0 0.0
2018-Jun-02 13:53N 44°30' E 012°25'0 0.0
2018-Jun-02 11:02N 44°30' E 012°25'0 0.1
2018-Jun-02 10:59N 44°30' E 012°25'0 0.0
2018-Jun-02 10:26N 44°30' E 012°25'0 0.0
2018-Jun-02 09:50N 44°30' E 012°25'0 0.0
2018-Jun-02 01:53N 44°30' E 012°26'0 0.0
2018-Jun-01 22:53N 44°30' E 012°26'0 0.0
2018-May-31 17:04N 44°30' E 012°25'0 0.0
2018-May-31 16:58N 44°30' E 012°25'0 0.0
2018-May-31 15:37N 44°30' E 012°25'0 0.0
2018-May-31 14:43N 44°30' E 012°25'0 0.1
2018-May-31 14:25N 44°30' E 012°25'0 0.0
2018-May-31 13:55N 44°30' E 012°25'0 0.0
2018-May-31 13:30N 44°30' E 012°25'0 0.0
2018-May-31 00:45N 44°30' E 012°25'0 0.0
2018-May-30 21:51N 44°30' E 012°25'0 0.0
2018-May-30 21:30N 44°30' E 012°25'0 0.0
2018-May-30 20:57N 44°30' E 012°25'0 0.0
2018-May-30 20:09N 44°30' E 012°25'0 0.0
2018-May-30 20:00N 44°30' E 012°25'0 0.0
2018-May-30 04:20N 44°30' E 012°25'0 0.0
2018-May-30 00:41N 44°30' E 012°25'0 0.0
2018-May-30 00:29N 44°30' E 012°25'0 0.0
2018-May-29 23:59N 44°30' E 012°25'0 0.0
2018-May-29 17:38N 44°30' E 012°25'0 0.0
2018-May-29 17:29N 44°30' E 012°25'0 0.0
2018-May-29 16:59N 44°30' E 012°25'0 0.0
2018-May-29 16:17N 44°30' E 012°25'0 0.0
2018-May-29 12:47N 44°30' E 012°25'0 0.0
2018-May-28 21:41N 44°30' E 012°25'0 0.0
2018-May-28 21:29N 44°30' E 012°25'0 0.0
2018-May-28 20:56N 44°30' E 012°25'0 0.1
2018-May-28 20:17N 44°30' E 012°25'0 0.0
2018-May-28 10:58N 44°30' E 012°25'0 0.0
2018-May-28 03:58N 44°30' E 012°25'0 0.0
2018-May-28 03:19N 44°30' E 012°25'0 0.0
2018-May-28 02:58N 44°30' E 012°25'0 0.0
2018-May-28 02:28N 44°30' E 012°25'  
Track history (hours):
 
Tides and Currents Weather Stations Pressure Air Temp Water Temp Dewpoint Dewpoint Depression Visibility Wind Speed Wind Dir Waves Ship Positions

Catharina 1

Last reported at 2018-Jun-07 01:39 UTC. Time now 2018-Jun-20 09:22 UTC.
Position N 43°47' E 014°25'.
Warning: this ship's position is 13 days out of date.

Length 85 m; draft 4.2 m.

Type: Cargo ship. MMSI: 256686000.

Date/timePositionNaut miles runAvg speedWind from/ knotsBaromVisibWave heightAir tempDewpointWater temp
2018-Jun-07 01:39N 43°47' E 014°25'2 8.9
2018-Jun-07 01:28N 43°47' E 014°23'4 8.7
2018-Jun-07 01:00N 43°48' E 014°18'4 8.6
2018-Jun-07 00:30N 43°49' E 014°12'6 8.7
2018-Jun-06 23:48N 43°51' E 014°04'3 8.8
2018-Jun-06 23:30N 43°52' E 014°01'4 8.9
2018-Jun-06 23:00N 43°53' E 013°55'8 8.6
2018-Jun-06 22:07N 43°56' E 013°45'1 8.6
2018-Jun-06 21:59N 43°57' E 013°44'4 8.7
2018-Jun-06 21:30N 43°59' E 013°39'59 8.2
2018-Jun-06 14:19N 44°29' E 012°28'2 1.7
2018-Jun-06 13:04N 44°30' E 012°25'0 0.1
2018-Jun-06 12:58N 44°30' E 012°25'0 0.0
2018-Jun-06 12:25N 44°30' E 012°25'0 0.0
2018-Jun-06 11:52N 44°30' E 012°25'0 0.0
2018-Jun-06 11:07N 44°30' E 012°25'0 0.0
2018-Jun-06 10:55N 44°30' E 012°25'0 0.0
2018-Jun-06 10:27N 44°30' E 012°25'0 0.0
2018-Jun-05 19:48N 44°30' E 012°26'0 0.0
2018-Jun-05 19:30N 44°30' E 012°25'0 0.0
2018-Jun-05 19:00N 44°30' E 012°25'0 0.0
2018-Jun-05 18:15N 44°30' E 012°25'0 0.0
2018-Jun-05 16:36N 44°30' E 012°25'0 0.0
2018-Jun-05 16:27N 44°30' E 012°25'0 0.0
2018-Jun-05 15:42N 44°30' E 012°25'0 0.0
2018-Jun-05 15:09N 44°30' E 012°25'0 0.0
2018-Jun-05 14:54N 44°30' E 012°25'0 0.0
2018-Jun-05 14:27N 44°30' E 012°25'0 0.0
2018-Jun-05 13:57N 44°30' E 012°25'0 0.0
2018-Jun-05 13:25N 44°30' E 012°25'0 0.0
2018-Jun-04 19:10N 44°30' E 012°26'0 0.1
2018-Jun-04 18:52N 44°30' E 012°26'0 0.0
2018-Jun-04 18:22N 44°30' E 012°26'0 0.0
2018-Jun-04 17:58N 44°30' E 012°25'0 0.0
2018-Jun-04 17:28N 44°30' E 012°26'0 0.0
2018-Jun-04 12:10N 44°30' E 012°25'0 0.0
2018-Jun-04 04:30N 44°30' E 012°26'0 0.0
2018-Jun-04 03:48N 44°30' E 012°26'0 0.0
2018-Jun-04 03:30N 44°30' E 012°26'0 0.0
2018-Jun-04 00:48N 44°30' E 012°25'0 0.0
2018-Jun-03 22:54N 44°30' E 012°26'0 0.0
2018-Jun-03 21:00N 44°30' E 012°26'0 0.0
2018-Jun-03 20:12N 44°30' E 012°26'0 0.0
2018-Jun-03 19:48N 44°30' E 012°25'0 0.0
2018-Jun-03 12:51N 44°30' E 012°25'0 0.0
2018-Jun-03 10:39N 44°30' E 012°26'0 0.0
2018-Jun-03 10:21N 44°30' E 012°26'0 0.0
2018-Jun-03 09:57N 44°30' E 012°26'0 0.0
2018-Jun-03 09:30N 44°30' E 012°26'0 0.0
2018-Jun-03 09:00N 44°30' E 012°26'0 0.0
2018-Jun-03 08:24N 44°30' E 012°26'0 0.0
2018-Jun-03 03:48N 44°30' E 012°26'0 0.0
2018-Jun-03 03:30N 44°30' E 012°26'0 0.0
2018-Jun-03 03:00N 44°30' E 012°26'0 0.0
2018-Jun-02 22:33N 44°30' E 012°26'0 0.1
2018-Jun-02 22:30N 44°30' E 012°26'0 0.0
2018-Jun-02 22:00N 44°30' E 012°26'0 0.0
2018-Jun-02 21:26N 44°30' E 012°26'0 0.0
2018-Jun-02 20:02N 44°30' E 012°26'0 0.0
2018-Jun-02 19:56N 44°30' E 012°26'0 0.0
2018-Jun-02 17:53N 44°30' E 012°25'0 0.0
2018-Jun-02 17:23N 44°30' E 012°25'0 0.0
2018-Jun-02 16:08N 44°30' E 012°25'0 0.0
2018-Jun-02 15:53N 44°30' E 012°25'0 0.0
2018-Jun-02 13:53N 44°30' E 012°25'0 0.0
2018-Jun-02 11:02N 44°30' E 012°25'0 0.1
2018-Jun-02 10:59N 44°30' E 012°25'0 0.0
2018-Jun-02 10:26N 44°30' E 012°25'0 0.0
2018-Jun-02 09:50N 44°30' E 012°25'0 0.0
2018-Jun-02 01:53N 44°30' E 012°26'0 0.0
2018-Jun-01 22:53N 44°30' E 012°26'0 0.0
2018-May-31 17:04N 44°30' E 012°25'0 0.0
2018-May-31 16:58N 44°30' E 012°25'0 0.0
2018-May-31 15:37N 44°30' E 012°25'0 0.0
2018-May-31 14:43N 44°30' E 012°25'0 0.1
2018-May-31 14:25N 44°30' E 012°25'0 0.0
2018-May-31 13:55N 44°30' E 012°25'0 0.0
2018-May-31 13:30N 44°30' E 012°25'0 0.0
2018-May-31 00:45N 44°30' E 012°25'0 0.0
2018-May-30 21:51N 44°30' E 012°25'0 0.0
2018-May-30 21:30N 44°30' E 012°25'0 0.0
2018-May-30 20:57N 44°30' E 012°25'0 0.0
2018-May-30 20:09N 44°30' E 012°25'0 0.0
2018-May-30 20:00N 44°30' E 012°25'0 0.0
2018-May-30 04:20N 44°30' E 012°25'0 0.0
2018-May-30 00:41N 44°30' E 012°25'0 0.0
2018-May-30 00:29N 44°30' E 012°25'0 0.0
2018-May-29 23:59N 44°30' E 012°25'0 0.0
2018-May-29 17:38N 44°30' E 012°25'0 0.0
2018-May-29 17:29N 44°30' E 012°25'0 0.0
2018-May-29 16:59N 44°30' E 012°25'0 0.0
2018-May-29 16:17N 44°30' E 012°25'0 0.0
2018-May-29 12:47N 44°30' E 012°25'0 0.0
2018-May-28 21:41N 44°30' E 012°25'0 0.0
2018-May-28 21:29N 44°30' E 012°25'0 0.0
2018-May-28 20:56N 44°30' E 012°25'0 0.1
2018-May-28 20:17N 44°30' E 012°25'0 0.0
2018-May-28 10:58N 44°30' E 012°25'0 0.0
2018-May-28 03:58N 44°30' E 012°25'0 0.0
2018-May-28 03:19N 44°30' E 012°25'0 0.0
2018-May-28 02:58N 44°30' E 012°25'0 0.0
2018-May-28 02:28N 44°30' E 012°25'  

Dump ship's entire track history